sensor_id;sensor_type;location;lat;lon;timestamp;pressure;altitude;pressure_sealevel;temperature;humidity
50696;BME280;36665;51.786;21.594;2023-06-26T00:06:12;96791.30;;;12.92;66.27
50696;BME280;36665;51.786;21.594;2023-06-26T00:14:35;96755.84;;;12.84;66.36
50696;BME280;36665;51.786;21.594;2023-06-26T00:22:58;96747.65;;;12.82;66.40
50696;BME280;36665;51.786;21.594;2023-06-26T00:31:22;96700.18;;;12.70;66.22
50696;BME280;36665;51.786;21.594;2023-06-26T00:39:45;96636.57;;;12.54;66.42
50696;BME280;36665;51.786;21.594;2023-06-26T00:48:09;96613.88;;;12.48;66.30
50696;BME280;36665;51.786;21.594;2023-06-26T00:56:35;96629.05;;;12.52;66.28
50696;BME280;36665;51.786;21.594;2023-06-26T01:05:01;96624.55;;;12.52;66.37
50696;BME280;36665;51.786;21.594;2023-06-26T01:13:28;96576.29;;;12.40;66.24
50696;BME280;36665;51.786;21.594;2023-06-26T01:21:58;96528.81;;;12.28;66.40
50696;BME280;36665;51.786;21.594;2023-06-26T01:30:23;96482.45;;;12.16;66.18
50696;BME280;36665;51.786;21.594;2023-06-26T01:38:48;96443.70;;;12.07;66.25
50696;BME280;36665;51.786;21.594;2023-06-26T01:47:15;96420.64;;;12.02;66.33
50696;BME280;36665;51.786;21.594;2023-06-26T01:56:04;96384.23;;;11.92;66.18
50696;BME280;36665;51.786;21.594;2023-06-26T02:04:29;96346.64;;;11.84;66.10
50696;BME280;36665;51.786;21.594;2023-06-26T02:12:55;96332.44;;;11.81;66.07
50696;BME280;36665;51.786;21.594;2023-06-26T02:21:18;96283.08;;;11.68;66.07
50696;BME280;36665;51.786;21.594;2023-06-26T02:29:45;96226.08;;;11.54;66.18
50696;BME280;36665;51.786;21.594;2023-06-26T02:38:08;96226.31;;;11.54;66.13
50696;BME280;36665;51.786;21.594;2023-06-26T02:46:31;96249.65;;;11.60;66.01
50696;BME280;36665;51.786;21.594;2023-06-26T02:54:54;96218.49;;;11.53;66.06
50696;BME280;36665;51.786;21.594;2023-06-26T03:03:17;96170.07;;;11.41;66.02
50696;BME280;36665;51.786;21.594;2023-06-26T03:11:40;96203.58;;;11.50;66.08
50696;BME280;36665;51.786;21.594;2023-06-26T03:20:04;96333.84;;;11.82;66.31
50696;BME280;36665;51.786;21.594;2023-06-26T03:28:38;96513.30;;;12.28;66.39
50696;BME280;36665;51.786;21.594;2023-06-26T03:37:01;96677.99;;;12.69;66.30
50696;BME280;36665;51.786;21.594;2023-06-26T03:45:25;96883.57;;;13.21;66.53
50696;BME280;36665;51.786;21.594;2023-06-26T03:53:50;97097.20;;;13.73;66.63
50696;BME280;36665;51.786;21.594;2023-06-26T04:02:16;97292.40;;;14.21;66.78
50696;BME280;36665;51.786;21.594;2023-06-26T04:10:39;97579.89;;;14.91;66.79
50696;BME280;36665;51.786;21.594;2023-06-26T04:19:02;97917.45;;;15.73;66.85
50696;BME280;36665;51.786;21.594;2023-06-26T04:27:25;98247.64;;;16.53;67.24
50696;BME280;36665;51.786;21.594;2023-06-26T04:35:48;98573.73;;;17.31;67.21
50696;BME280;36665;51.786;21.594;2023-06-26T04:44:14;98931.25;;;18.15;67.39
50696;BME280;36665;51.786;21.594;2023-06-26T04:52:37;99296.00;;;18.99;67.82
50696;BME280;36665;51.786;21.594;2023-06-26T05:01:00;99670.45;;;19.85;67.94
50696;BME280;36665;51.786;21.594;2023-06-26T05:09:25;100022.64;;;20.64;68.07
50696;BME280;36665;51.786;21.594;2023-06-26T05:17:48;100359.56;;;21.41;68.32
50696;BME280;36665;51.786;21.594;2023-06-26T05:26:11;100658.52;;;22.06;68.31
50696;BME280;36665;51.786;21.594;2023-06-26T05:34:37;100896.48;;;22.59;68.63
50696;BME280;36665;51.786;21.594;2023-06-26T05:43:02;101134.31;;;23.09;68.72
50696;BME280;36665;51.786;21.594;2023-06-26T05:51:25;101308.92;;;23.48;68.67
50696;BME280;36665;51.786;21.594;2023-06-26T05:59:49;101506.34;;;23.90;68.87
50696;BME280;36665;51.786;21.594;2023-06-26T06:08:12;101682.55;;;24.26;68.91
50696;BME280;36665;51.786;21.594;2023-06-26T06:16:35;101957.27;;;24.84;69.03
50696;BME280;36665;51.786;21.594;2023-06-26T06:24:58;102277.04;;;25.51;69.03
50696;BME280;36665;51.786;21.594;2023-06-26T06:33:21;102552.98;;;26.09;69.13
50696;BME280;36665;51.786;21.594;2023-06-26T06:41:44;102760.31;;;26.52;69.37
50696;BME280;36665;51.786;21.594;2023-06-26T06:50:07;102886.22;;;26.76;69.45
50696;BME280;36665;51.786;21.594;2023-06-26T06:58:32;102728.23;;;26.42;69.52
50696;BME280;36665;51.786;21.594;2023-06-26T07:06:56;102588.73;;;26.13;69.27
50696;BME280;36665;51.786;21.594;2023-06-26T07:15:20;102730.84;;;26.43;69.27
50696;BME280;36665;51.786;21.594;2023-06-26T07:23:43;102703.49;;;26.37;69.32
50696;BME280;36665;51.786;21.594;2023-06-26T07:32:06;102979.23;;;26.93;69.42
50696;BME280;36665;51.786;21.594;2023-06-26T07:40:29;103291.62;;;27.56;69.48
50696;BME280;36665;51.786;21.594;2023-06-26T07:48:53;103525.16;;;28.03;69.65
50696;BME280;36665;51.786;21.594;2023-06-26T07:57:16;103603.14;;;28.19;69.71
50696;BME280;36665;51.786;21.594;2023-06-26T08:05:39;103647.14;;;28.26;69.73
50696;BME280;36665;51.786;21.594;2023-06-26T08:14:02;103698.52;;;28.36;69.63
50696;BME280;36665;51.786;21.594;2023-06-26T08:22:25;103767.10;;;28.51;69.74
50696;BME280;36665;51.786;21.594;2023-06-26T08:30:48;103863.48;;;28.70;69.66
50696;BME280;36665;51.786;21.594;2023-06-26T08:39:12;103941.45;;;28.85;69.70
50696;BME280;36665;51.786;21.594;2023-06-26T08:47:35;103823.96;;;28.60;69.79
50696;BME280;36665;51.786;21.594;2023-06-26T08:56:02;103345.69;;;27.63;69.71
50696;BME280;36665;51.786;21.594;2023-06-26T09:04:27;103167.75;;;27.28;69.56
50696;BME280;36665;51.786;21.594;2023-06-26T09:12:55;103327.37;;;27.60;69.55
50696;BME280;36665;51.786;21.594;2023-06-26T09:21:19;103721.14;;;28.40;69.73
50696;BME280;36665;51.786;21.594;2023-06-26T09:29:45;103659.33;;;28.27;69.58
50696;BME280;36665;51.786;21.594;2023-06-26T09:38:09;103761.15;;;28.48;69.63
50696;BME280;36665;51.786;21.594;2023-06-26T09:46:33;103886.17;;;28.73;69.62
50696;BME280;36665;51.786;21.594;2023-06-26T09:55:09;104012.71;;;28.98;69.78
50696;BME280;36665;51.786;21.594;2023-06-26T10:03:32;104142.67;;;29.24;69.84
50696;BME280;36665;51.786;21.594;2023-06-26T10:11:57;104215.28;;;29.37;69.60
50696;BME280;36665;51.786;21.594;2023-06-26T10:20:23;104287.98;;;29.52;69.77
50696;BME280;36665;51.786;21.594;2023-06-26T10:28:48;104392.41;;;29.73;69.77
50696;BME280;36665;51.786;21.594;2023-06-26T10:37:15;104312.92;;;29.57;69.72
50696;BME280;36665;51.786;21.594;2023-06-26T10:45:43;103819.23;;;28.58;69.74
50696;BME280;36665;51.786;21.594;2023-06-26T10:54:14;103721.39;;;28.39;69.44
50696;BME280;36665;51.786;21.594;2023-06-26T11:02:48;103616.80;;;28.18;69.52
50696;BME280;36665;51.786;21.594;2023-06-26T11:11:12;103294.73;;;27.52;69.21
50696;BME280;36665;51.786;21.594;2023-06-26T11:19:35;103267.31;;;27.47;69.20
50696;BME280;36665;51.786;21.594;2023-06-26T11:27:59;103597.15;;;28.15;69.23
50696;BME280;36665;51.786;21.594;2023-06-26T11:36:25;103738.48;;;28.43;69.34
50696;BME280;36665;51.786;21.594;2023-06-26T11:44:50;104021.08;;;29.00;69.32
50696;BME280;36665;51.786;21.594;2023-06-26T11:53:15;104227.35;;;29.40;69.46
50696;BME280;36665;51.786;21.594;2023-06-26T12:01:42;104307.38;;;29.56;69.58
50696;BME280;36665;51.786;21.594;2023-06-26T12:10:13;104352.73;;;29.64;69.44
50696;BME280;36665;51.786;21.594;2023-06-26T12:18:37;104267.70;;;29.47;69.60
50696;BME280;36665;51.786;21.594;2023-06-26T12:27:02;104203.34;;;29.35;69.51
50696;BME280;36665;51.786;21.594;2023-06-26T12:35:26;104247.89;;;29.44;69.48
50696;BME280;36665;51.786;21.594;2023-06-26T12:43:49;104119.15;;;29.17;69.43
50696;BME280;36665;51.786;21.594;2023-06-26T12:52:14;104089.02;;;29.11;69.39
50696;BME280;36665;51.786;21.594;2023-06-26T13:00:37;104183.71;;;29.31;69.55
50696;BME280;36665;51.786;21.594;2023-06-26T13:09:01;104205.15;;;29.35;69.49
50696;BME280;36665;51.786;21.594;2023-06-26T13:17:27;104197.48;;;29.33;69.35
50696;BME280;36665;51.786;21.594;2023-06-26T13:25:50;104252.70;;;29.44;69.36
50696;BME280;36665;51.786;21.594;2023-06-26T13:34:24;104253.24;;;29.45;69.43
50696;BME280;36665;51.786;21.594;2023-06-26T13:42:50;104163.06;;;29.26;69.26
50696;BME280;36665;51.786;21.594;2023-06-26T13:51:14;104185.02;;;29.30;69.27
50696;BME280;36665;51.786;21.594;2023-06-26T13:59:38;104138.30;;;29.22;69.28
50696;BME280;36665;51.786;21.594;2023-06-26T14:08:07;104162.96;;;29.25;69.25
50696;BME280;36665;51.786;21.594;2023-06-26T14:16:32;104114.59;;;29.17;69.11
50696;BME280;36665;51.786;21.594;2023-06-26T14:24:56;104038.92;;;29.02;69.31
50696;BME280;36665;51.786;21.594;2023-06-26T14:33:19;104005.63;;;28.96;69.15
50696;BME280;36665;51.786;21.594;2023-06-26T14:41:42;103959.91;;;28.87;69.17
50696;BME280;36665;51.786;21.594;2023-06-26T14:50:07;103906.02;;;28.76;68.95
50696;BME280;36665;51.786;21.594;2023-06-26T14:58:30;103838.67;;;28.63;69.23
50696;BME280;36665;51.786;21.594;2023-06-26T15:06:53;103752.02;;;28.45;69.07
50696;BME280;36665;51.786;21.594;2023-06-26T15:15:16;103644.31;;;28.23;69.06
50696;BME280;36665;51.786;21.594;2023-06-26T15:23:40;103602.72;;;28.15;68.92
50696;BME280;36665;51.786;21.594;2023-06-26T15:32:03;103543.97;;;28.03;69.04
50696;BME280;36665;51.786;21.594;2023-06-26T15:40:27;103444.70;;;27.83;68.95
50696;BME280;36665;51.786;21.594;2023-06-26T15:48:50;103414.16;;;27.77;68.99
50696;BME280;36665;51.786;21.594;2023-06-26T15:57:14;103386.64;;;27.71;68.91
50696;BME280;36665;51.786;21.594;2023-06-26T16:05:37;103334.13;;;27.61;68.92
50696;BME280;36665;51.786;21.594;2023-06-26T16:14:01;103274.05;;;27.49;68.65
50696;BME280;36665;51.786;21.594;2023-06-26T16:22:24;103199.05;;;27.33;68.86
50696;BME280;36665;51.786;21.594;2023-06-26T16:30:46;103155.29;;;27.24;68.77
50696;BME280;36665;51.786;21.594;2023-06-26T16:39:10;103104.61;;;27.13;68.63
50696;BME280;36665;51.786;21.594;2023-06-26T16:47:38;103048.26;;;27.02;68.70
50696;BME280;36665;51.786;21.594;2023-06-26T16:56:02;102884.34;;;26.68;68.58
50696;BME280;36665;51.786;21.594;2023-06-26T17:04:27;102692.63;;;26.28;68.56
50696;BME280;36665;51.786;21.594;2023-06-26T17:12:50;102599.48;;;26.09;68.66
50696;BME280;36665;51.786;21.594;2023-06-26T17:21:13;102547.98;;;25.99;68.47
50696;BME280;36665;51.786;21.594;2023-06-26T17:29:37;102524.99;;;25.95;68.55
50696;BME280;36665;51.786;21.594;2023-06-26T17:38:00;102463.99;;;25.81;68.47
50696;BME280;36665;51.786;21.594;2023-06-26T17:46:23;102362.69;;;25.60;68.50
50696;BME280;36665;51.786;21.594;2023-06-26T17:54:46;102224.94;;;25.30;68.32
50696;BME280;36665;51.786;21.594;2023-06-26T18:03:09;102044.70;;;24.92;68.51
50696;BME280;36665;51.786;21.594;2023-06-26T18:11:34;101867.70;;;24.54;68.35
50696;BME280;36665;51.786;21.594;2023-06-26T18:20:00;101696.55;;;24.18;68.17
50696;BME280;36665;51.786;21.594;2023-06-26T18:28:27;101497.97;;;23.75;68.27
50696;BME280;36665;51.786;21.594;2023-06-26T18:36:53;101277.05;;;23.27;68.25
50696;BME280;36665;51.786;21.594;2023-06-26T18:45:20;101050.62;;;22.77;68.15
50696;BME280;36665;51.786;21.594;2023-06-26T18:53:43;100833.52;;;22.29;67.94
50696;BME280;36665;51.786;21.594;2023-06-26T19:02:07;100594.80;;;21.76;67.81
50696;BME280;36665;51.786;21.594;2023-06-26T19:10:30;100374.77;;;21.27;67.83
50696;BME280;36665;51.786;21.594;2023-06-26T19:18:53;100167.39;;;20.81;67.87
50696;BME280;36665;51.786;21.594;2023-06-26T19:27:21;99963.55;;;20.35;67.59
50696;BME280;36665;51.786;21.594;2023-06-26T19:35:44;99760.38;;;19.88;67.55
50696;BME280;36665;51.786;21.594;2023-06-26T19:44:07;99584.61;;;19.48;67.43
50696;BME280;36665;51.786;21.594;2023-06-26T19:52:30;99450.38;;;19.18;67.32
50696;BME280;36665;51.786;21.594;2023-06-26T20:00:52;99309.44;;;18.86;67.34
50696;BME280;36665;51.786;21.594;2023-06-26T20:09:16;99208.86;;;18.62;67.36
50696;BME280;36665;51.786;21.594;2023-06-26T20:17:39;99112.77;;;18.41;67.35
50696;BME280;36665;51.786;21.594;2023-06-26T20:26:02;99038.00;;;18.23;67.26
50696;BME280;36665;51.786;21.594;2023-06-26T20:34:25;98972.56;;;18.08;67.12
50696;BME280;36665;51.786;21.594;2023-06-26T20:42:48;98927.11;;;17.98;67.04
50696;BME280;36665;51.786;21.594;2023-06-26T20:51:12;98889.27;;;17.88;67.19
50696;BME280;36665;51.786;21.594;2023-06-26T20:59:38;98838.02;;;17.77;67.04
50696;BME280;36665;51.786;21.594;2023-06-26T21:08:01;98797.30;;;17.68;67.16
50696;BME280;36665;51.786;21.594;2023-06-26T21:16:25;98779.81;;;17.64;67.03
50696;BME280;36665;51.786;21.594;2023-06-26T21:24:49;98770.28;;;17.62;66.92
50696;BME280;36665;51.786;21.594;2023-06-26T21:33:13;98751.31;;;17.57;66.96
50696;BME280;36665;51.786;21.594;2023-06-26T21:41:39;98705.67;;;17.47;67.20
50696;BME280;36665;51.786;21.594;2023-06-26T21:50:03;98641.52;;;17.32;66.87
50696;BME280;36665;51.786;21.594;2023-06-26T21:58:30;98583.27;;;17.19;66.97
50696;BME280;36665;51.786;21.594;2023-06-26T22:06:53;98557.00;;;17.13;66.94
50696;BME280;36665;51.786;21.594;2023-06-26T22:15:17;98556.02;;;17.12;66.86
50696;BME280;36665;51.786;21.594;2023-06-26T22:23:40;98504.23;;;17.00;67.04
50696;BME280;36665;51.786;21.594;2023-06-26T22:32:04;98420.27;;;16.81;66.74
50696;BME280;36665;51.786;21.594;2023-06-26T22:40:27;98349.35;;;16.64;66.87
50696;BME280;36665;51.786;21.594;2023-06-26T22:48:50;98329.06;;;16.59;66.82
50696;BME280;36665;51.786;21.594;2023-06-26T22:57:13;98339.38;;;16.62;67.02
50696;BME280;36665;51.786;21.594;2023-06-26T23:05:36;98328.69;;;16.59;66.83
50696;BME280;36665;51.786;21.594;2023-06-26T23:14:00;98272.19;;;16.45;66.84
50696;BME280;36665;51.786;21.594;2023-06-26T23:22:23;98168.95;;;16.21;66.97
50696;BME280;36665;51.786;21.594;2023-06-26T23:30:46;98120.89;;;16.10;66.82
50696;BME280;36665;51.786;21.594;2023-06-26T23:39:11;98119.02;;;16.09;66.90
50696;BME280;36665;51.786;21.594;2023-06-26T23:47:34;98118.40;;;16.10;67.07
50696;BME280;36665;51.786;21.594;2023-06-26T23:55:58;98103.29;;;16.06;66.81
